Time;durP1;ratioP1;P1;durP2;ratioP2;P2;SDS_P1;SDS_P2;PMS_P1;PMS_P2;Temp;Humidity;BMP_temperature;BMP_pressure;BME280_temperature;BME280_humidity;BME280_pressure;Samples;Min_cycle;Max_cycle;Signal;HPM_P1;HPM_P2
2023/12/08 00:02:18;;;;;;;;;;;;;;;;;;5075570;28;20426;-64
2023/12/08 00:04:44;;;;;;;;;;;;;;;;;;5100870;28;19920;-64
2023/12/08 00:07:10;;;;;;;;;;;;;;;;;;5075356;28;19920;-64
2023/12/08 00:09:36;;;;;;;;;;;;;;;;;;5078346;28;19924;-64
2023/12/08 00:12:02;;;;;;;;;;;;;;;;;;5071675;28;19951;-64
2023/12/08 00:14:28;;;;;;;;;;;;;;;;;;5074715;28;20005;-64
2023/12/08 00:16:54;;;;;;;;;;;;;;;;;;5077498;28;19963;-64
2023/12/08 00:19:20;;;;;;;;;;;;;;;;;;5096428;28;19951;-63
2023/12/08 00:21:46;;;;;;;;;;;;;;;;;;5076102;28;19927;-64
2023/12/08 00:24:12;;;;;;;;;;;;;;;;;;5075602;28;19931;-64
2023/12/08 00:26:38;;;;;;;;;;;;;;;;;;5077309;28;19925;-64
2023/12/08 00:29:04;;;;;;;;;;;;;;;;;;5067190;28;19920;-64
2023/12/08 00:31:30;;;;;;;;;;;;;;;;;;5097747;28;19955;-64
2023/12/08 00:33:56;;;;;;;;;;;;;;;;;;5059600;28;19966;-64
2023/12/08 00:36:22;;;;;;;;;;;;;;;;;;5061621;28;19920;-65
2023/12/08 00:38:48;;;;;;;;;;;;;;;;;;5094421;28;19924;-64
2023/12/08 00:41:14;;;;;;;;;;;;;;;;;;5076505;28;19927;-65
2023/12/08 00:43:40;;;;;;;;;;;;;;;;;;5098650;28;19927;-64
2023/12/08 00:46:06;;;;;;;;;;;;;;;;;;5079519;28;19924;-64
2023/12/08 00:48:32;;;;;;;;;;;;;;;;;;5081652;28;20006;-65
2023/12/08 00:50:58;;;;;;;;;;;;;;;;;;5078148;28;19920;-65
2023/12/08 00:53:24;;;;;;;;;;;;;;;;;;5098494;28;20374;-64
2023/12/08 00:55:50;;;;;;;;;;;;;;;;;;5074229;28;19920;-65
2023/12/08 00:58:16;;;;;;;;;;;;;;;;;;5077483;28;20396;-64
2023/12/08 01:00:43;;;;;;;;;;;;;;;;;;5102687;28;19920;-64
2023/12/08 01:03:09;;;;;;;;;;;;;;;;;;5060253;28;20358;-64
2023/12/08 01:05:35;;;;;;;;;;;;;;;;;;5061277;28;19924;-64
2023/12/08 01:08:01;;;;;;;;;;;;;;;;;;5087830;28;19920;-64
2023/12/08 01:10:27;;;;;;;;;;;;;;;;;;5057047;28;19999;-64
2023/12/08 01:12:53;;;;;;;;;;;;;;;;;;5057331;28;20476;-65
2023/12/08 01:15:18;;;;;;;;;;;;;;;;;;5105074;27;20007;-64
2023/12/08 01:17:44;;;;;;;;;;;;;;;;;;5076551;28;20006;-64
2023/12/08 01:20:10;;;;;;;;;;;;;;;;;;5076671;28;20011;-64
2023/12/08 01:22:37;;;;;;;;;;;;;;;;;;5095092;28;20490;-65
2023/12/08 01:25:03;;;;;;;;;;;;;;;;;;5090476;28;20357;-65
2023/12/08 01:27:29;;;;;;;;;;;;;;;;;;5077298;28;19927;-63
2023/12/08 01:29:55;;;;;;;;;;;;;;;;;;5076444;28;19924;-65
2023/12/08 01:32:20;;;;;;;;;;;;;;;;;;5094718;28;19920;-65
2023/12/08 01:34:46;;;;;;;;;;;;;;;;;;5094907;28;20335;-65
2023/12/08 01:37:12;;;;;;;;;;;;;;;;;;5076783;28;19920;-65
2023/12/08 01:39:38;;;;;;;;;;;;;;;;;;5094713;28;19924;-64
2023/12/08 01:42:04;;;;;;;;;;;;;;;;;;5095034;28;19920;-64
2023/12/08 01:44:30;;;;;;;;;;;;;;;;;;5075743;28;20010;-64
2023/12/08 01:46:56;;;;;;;;;;;;;;;;;;5095021;28;19924;-65
2023/12/08 01:49:22;;;;;;;;;;;;;;;;;;5075468;28;19946;-64
2023/12/08 01:51:48;;;;;;;;;;;;;;;;;;5094911;28;20053;-64
2023/12/08 01:54:14;;;;;;;;;;;;;;;;;;5075925;28;19927;-64
2023/12/08 01:56:40;;;;;;;;;;;;;;;;;;5093752;28;19924;-65
2023/12/08 01:59:06;;;;;;;;;;;;;;;;;;5088496;28;19979;-64
2023/12/08 02:01:31;;;;;;;;;;;;;;;;;;5076538;28;19989;-64
2023/12/08 02:03:57;;;;;;;;;;;;;;;;;;5055911;28;20332;-63
2023/12/08 02:06:23;;;;;;;;;;;;;;;;;;5095129;28;19967;-65
2023/12/08 02:08:49;;;;;;;;;;;;;;;;;;5088395;28;19962;-65
2023/12/08 02:11:15;;;;;;;;;;;;;;;;;;5097520;28;20345;-65
2023/12/08 02:13:41;;;;;;;;;;;;;;;;;;5074622;28;19920;-64
2023/12/08 02:16:07;;;;;;;;;;;;;;;;;;5076245;28;19955;-64
2023/12/08 02:18:33;;;;;;;;;;;;;;;;;;5094249;28;19951;-64
2023/12/08 02:20:59;;;;;;;;;;;;;;;;;;5083750;28;19970;-64
2023/12/08 02:23:25;;;;;;;;;;;;;;;;;;5076103;28;20447;-64
2023/12/08 02:25:51;;;;;;;;;;;;;;;;;;5092307;28;19971;-65
2023/12/08 02:28:17;;;;;;;;;;;;;;;;;;5075682;28;19967;-65
2023/12/08 02:30:43;;;;;;;;;;;;;;;;;;5091159;28;19959;-65
2023/12/08 02:33:09;;;;;;;;;;;;;;;;;;5093585;28;20292;-64
2023/12/08 02:35:34;;;;;;;;;;;;;;;;;;5078283;28;19937;-64
2023/12/08 02:38:00;;;;;;;;;;;;;;;;;;5096724;28;19928;-65
2023/12/08 02:40:26;;;;;;;;;;;;;;;;;;5094629;28;19923;-64
2023/12/08 02:42:52;;;;;;;;;;;;;;;;;;5063790;28;19924;-64
2023/12/08 02:45:18;;;;;;;;;;;;;;;;;;5075920;28;20214;-64
2023/12/08 02:47:44;;;;;;;;;;;;;;;;;;5076523;28;19920;-64
2023/12/08 02:50:10;;;;;;;;;;;;;;;;;;5078658;28;19928;-64
2023/12/08 02:52:36;;;;;;;;;;;;;;;;;;5074993;28;19930;-65
2023/12/08 02:55:02;;;;;;;;;;;;;;;;;;5093718;28;19943;-64
2023/12/08 02:57:28;;;;;;;;;;;;;;;;;;5065046;28;19920;-64
2023/12/08 02:59:54;;;;;;;;;;;;;;;;;;5076823;28;20428;-64
2023/12/08 03:02:20;;;;;;;;;;;;;;;;;;5075279;28;19925;-64
2023/12/08 03:04:46;;;;;;;;;;;;;;;;;;5094237;28;19920;-65
2023/12/08 03:07:12;;;;;;;;;;;;;;;;;;5099629;28;19920;-64
2023/12/08 03:09:37;;;;;;;;;;;;;;;;;;5102226;28;19927;-64
2023/12/08 03:12:03;;;;;;;;;;;;;;;;;;5097693;28;20003;-64
2023/12/08 03:14:29;;;;;;;;;;;;;;;;;;5074914;28;20349;-64
2023/12/08 03:16:55;;;;;;;;;;;;;;;;;;5079765;28;19966;-64
2023/12/08 03:19:21;;;;;;;;;;;;;;;;;;5091440;28;19967;-65
2023/12/08 03:21:47;;;;;;;;;;;;;;;;;;5079990;28;19920;-64
2023/12/08 03:24:13;;;;;;;;;;;;;;;;;;5094349;28;19928;-64
2023/12/08 03:26:39;;;;;;;;;;;;;;;;;;5075030;28;19935;-65
2023/12/08 03:29:05;;;;;;;;;;;;;;;;;;5095526;28;20254;-64
2023/12/08 03:31:31;;;;;;;;;;;;;;;;;;5076030;28;19962;-63
2023/12/08 03:33:57;;;;;;;;;;;;;;;;;;5103248;28;20402;-64
2023/12/08 03:36:22;;;;;;;;;;;;;;;;;;5095972;28;20034;-64
2023/12/08 03:38:49;;;;;;;;;;;;;;;;;;5078976;28;20381;-65
2023/12/08 03:41:14;;;;;;;;;;;;;;;;;;5097002;28;19920;-64
2023/12/08 03:43:40;;;;;;;;;;;;;;;;;;5061817;28;19932;-64
2023/12/08 03:46:06;;;;;;;;;;;;;;;;;;5096748;28;19920;-65
2023/12/08 03:48:32;;;;;;;;;;;;;;;;;;5079018;28;19920;-65
2023/12/08 03:50:58;;;;;;;;;;;;;;;;;;5072042;28;20032;-65
2023/12/08 03:53:24;;;;;;;;;;;;;;;;;;5100285;28;20292;-65
2023/12/08 03:55:50;;;;;;;;;;;;;;;;;;5089826;28;19920;-63
2023/12/08 03:58:16;;;;;;;;;;;;;;;;;;5103811;28;19926;-63
2023/12/08 04:00:42;;;;;;;;;;;;;;;;;;5083352;28;19927;-63
2023/12/08 04:03:08;;;;;;;;;;;;;;;;;;5096961;28;20262;-64
2023/12/08 04:05:34;;;;;;;;;;;;;;;;;;5091172;28;19920;-64
2023/12/08 04:08:04;;;;;;;;;;;;;;;;;;5100348;28;19920;-63
2023/12/08 04:10:30;;;;;;;;;;;;;;;;;;5087905;28;19920;-64
2023/12/08 04:12:56;;;;;;;;;;;;;;;;;;5074347;28;19924;-64
2023/12/08 04:15:22;;;;;;;;;;;;;;;;;;5077393;28;20071;-64
2023/12/08 04:17:47;;;;;;;;;;;;;;;;;;5096553;28;19931;-65
2023/12/08 04:20:13;;;;;;;;;;;;;;;;;;5067692;28;19920;-64
2023/12/08 04:22:39;;;;;;;;;;;;;;;;;;5088128;28;19932;-64
2023/12/08 04:25:06;;;;;;;;;;;;;;;;;;5077771;28;19924;-65
2023/12/08 04:27:32;;;;;;;;;;;;;;;;;;5086860;28;19919;-64
2023/12/08 04:29:58;;;;;;;;;;;;;;;;;;5097337;28;20261;-64
2023/12/08 04:32:24;;;;;;;;;;;;;;;;;;5096205;28;19924;-65
2023/12/08 04:34:50;;;;;;;;;;;;;;;;;;5077621;28;19921;-65
2023/12/08 04:37:16;;;;;;;;;;;;;;;;;;5092035;28;19920;-64
2023/12/08 04:39:42;;;;;;;;;;;;;;;;;;5086973;28;20266;-64
2023/12/08 04:42:07;;;;;;;;;;;;;;;;;;5077441;28;19920;-63
2023/12/08 04:44:33;;;;;;;;;;;;;;;;;;5099375;28;20049;-63
2023/12/08 04:46:59;;;;;;;;;;;;;;;;;;5099666;28;20002;-64
2023/12/08 04:49:25;;;;;;;;;;;;;;;;;;5098184;28;19969;-63
2023/12/08 04:51:51;;;;;;;;;;;;;;;;;;5095870;28;19927;-64
2023/12/08 04:54:17;;;;;;;;;;;;;;;;;;5076967;28;19920;-64
2023/12/08 04:56:43;;;;;;;;;;;;;;;;;;5099725;28;20031;-64
2023/12/08 04:59:09;;;;;;;;;;;;;;;;;;5104473;28;20015;-64
2023/12/08 05:01:35;;;;;;;;;;;;;;;;;;5073652;28;19924;-64
2023/12/08 05:04:02;;;;;;;;;;;;;;;;;;5060095;28;19928;-64
2023/12/08 05:06:28;;;;;;;;;;;;;;;;;;5065712;28;19928;-64
2023/12/08 05:08:54;;;;;;;;;;;;;;;;;;5089462;28;20250;-63
2023/12/08 05:11:20;;;;;;;;;;;;;;;;;;5093545;28;19932;-64
2023/12/08 05:13:46;;;;;;;;;;;;;;;;;;5076495;28;20410;-64
2023/12/08 05:16:12;;;;;;;;;;;;;;;;;;5076476;28;19959;-64
2023/12/08 05:18:38;;;;;;;;;;;;;;;;;;5094943;28;20262;-64
2023/12/08 05:21:04;;;;;;;;;;;;;;;;;;5075723;28;20353;-64
2023/12/08 05:23:30;;;;;;;;;;;;;;;;;;5081228;28;19961;-63
2023/12/08 05:25:56;;;;;;;;;;;;;;;;;;5077440;28;19924;-64
2023/12/08 05:28:22;;;;;;;;;;;;;;;;;;5073729;28;19943;-64
2023/12/08 05:30:48;;;;;;;;;;;;;;;;;;5077347;28;19920;-64
2023/12/08 05:33:13;;;;;;;;;;;;;;;;;;5092825;28;19920;-64
2023/12/08 05:35:39;;;;;;;;;;;;;;;;;;5080988;28;20426;-64
2023/12/08 05:38:05;;;;;;;;;;;;;;;;;;5052283;28;19921;-64
2023/12/08 05:40:31;;;;;;;;;;;;;;;;;;5062314;28;19920;-64
2023/12/08 05:42:57;;;;;;;;;;;;;;;;;;5106640;28;19931;-64
2023/12/08 05:45:23;;;;;;;;;;;;;;;;;;5087373;28;19995;-64
2023/12/08 05:47:49;;;;;;;;;;;;;;;;;;5069373;28;20076;-64
2023/12/08 05:50:16;;;;;;;;;;;;;;;;;;5093987;28;20620;-63
2023/12/08 05:52:42;;;;;;;;;;;;;;;;;;5080145;28;19947;-63
2023/12/08 05:55:08;;;;;;;;;;;;;;;;;;5058295;28;19934;-63
2023/12/08 05:57:34;;;;;;;;;;;;;;;;;;5080010;28;19924;-64
2023/12/08 05:59:59;;;;;;;;;;;;;;;;;;5085424;28;20293;-64
2023/12/08 06:02:25;;;;;;;;;;;;;;;;;;5091584;28;19924;-64
2023/12/08 06:04:51;;;;;;;;;;;;;;;;;;5093464;28;19946;-64
2023/12/08 06:07:17;;;;;;;;;;;;;;;;;;5088780;28;20006;-63
2023/12/08 06:09:43;;;;;;;;;;;;;;;;;;5091955;28;19927;-63
2023/12/08 06:12:09;;;;;;;;;;;;;;;;;;5096839;28;19920;-65
2023/12/08 06:14:35;;;;;;;;;;;;;;;;;;5101525;28;20011;-64
2023/12/08 06:17:01;;;;;;;;;;;;;;;;;;5095243;28;19975;-65
2023/12/08 06:19:27;;;;;;;;;;;;;;;;;;5075254;28;19982;-65
2023/12/08 06:21:53;;;;;;;;;;;;;;;;;;5088648;28;19967;-63
2023/12/08 06:24:19;;;;;;;;;;;;;;;;;;5102336;28;20006;-63
2023/12/08 06:26:44;;;;;;;;;;;;;;;;;;5088557;28;20019;-63
2023/12/08 06:29:10;;;;;;;;;;;;;;;;;;5067152;28;19965;-64
2023/12/08 06:31:36;;;;;;;;;;;;;;;;;;5091826;28;20023;-64
2023/12/08 06:34:02;;;;;;;;;;;;;;;;;;5084886;28;19927;-64
2023/12/08 06:36:28;;;;;;;;;;;;;;;;;;5099241;28;19936;-63
2023/12/08 06:38:54;;;;;;;;;;;;;;;;;;5092204;28;20271;-64
2023/12/08 06:41:20;;;;;;;;;;;;;;;;;;5101717;22;19932;-72
2023/12/08 06:43:47;;;;;;;;;;;;;;;;;;5059150;28;20316;-71
2023/12/08 06:46:13;;;;;;;;;;;;;;;;;;5054581;28;19921;-71
2023/12/08 06:48:39;;;;;;;;;;;;;;;;;;5085811;28;20300;-72
2023/12/08 06:51:06;;;;;;;;;;;;;;;;;;5054235;28;19924;-72
2023/12/08 06:53:32;;;;;;;;;;;;;;;;;;5074498;28;19920;-72
2023/12/08 06:55:58;;;;;;;;;;;;;;;;;;5085159;28;20003;-72
2023/12/08 06:58:24;;;;;;;;;;;;;;;;;;5060081;28;20003;-72
2023/12/08 07:00:50;;;;;;;;;;;;;;;;;;5039143;28;20000;-72
2023/12/08 07:03:16;;;;;;;;;;;;;;;;;;5043520;28;19938;-71
2023/12/08 07:05:42;;;;;;;;;;;;;;;;;;5047170;28;19929;-73
2023/12/08 07:08:08;;;;;;;;;;;;;;;;;;5046582;28;19936;-73
2023/12/08 07:10:34;;;;;;;;;;;;;;;;;;5052392;28;19920;-73
2023/12/08 07:13:00;;;;;;;;;;;;;;;;;;5073493;28;19927;-73
2023/12/08 07:15:25;;;;;;;;;;;;;;;;;;5059696;28;20622;-73
2023/12/08 07:17:51;;;;;;;;;;;;;;;;;;5050835;28;19950;-73
2023/12/08 07:20:18;;;;;;;;;;;;;;;;;;5055565;28;19925;-74
2023/12/08 07:22:44;;;;;;;;;;;;;;;;;;5067855;28;19925;-74
2023/12/08 07:25:10;;;;;;;;;;;;;;;;;;5053839;28;19948;-73
2023/12/08 07:27:36;;;;;;;;;;;;;;;;;;5082238;28;20333;-73
2023/12/08 07:30:03;;;;;;;;;;;;;;;;;;5087185;28;20003;-73
2023/12/08 07:32:29;;;;;;;;;;;;;;;;;;5086165;28;20011;-73
2023/12/08 07:34:55;;;;;;;;;;;;;;;;;;5052036;28;20015;-73
2023/12/08 07:37:20;;;;;;;;;;;;;;;;;;5052128;28;20418;-74
2023/12/08 07:39:46;;;;;;;;;;;;;;;;;;5048610;28;19971;-73
2023/12/08 07:42:12;;;;;;;;;;;;;;;;;;5050289;28;19968;-73
2023/12/08 07:44:38;;;;;;;;;;;;;;;;;;5036278;28;20011;-73
2023/12/08 07:47:04;;;;;;;;;;;;;;;;;;5058994;28;19921;-73
2023/12/08 07:49:30;;;;;;;;;;;;;;;;;;5037807;28;19925;-73
2023/12/08 07:51:57;;;;;;;;;;;;;;;;;;5038367;28;20569;-73
2023/12/08 07:54:23;;;;;;;;;;;;;;;;;;5025913;28;19946;-73
2023/12/08 07:56:49;;;;;;;;;;;;;;;;;;5038271;28;19924;-73
2023/12/08 07:59:15;;;;;;;;;;;;;;;;;;5029842;28;19928;-73
2023/12/08 08:01:41;;;;;;;;;;;;;;;;;;5040147;28;20138;-74
2023/12/08 08:04:07;;;;;;;;;;;;;;;;;;5045641;28;19951;-73
2023/12/08 08:06:32;;;;;;;;;;;;;;;;;;5026709;28;20033;-72
2023/12/08 08:08:58;;;;;;;;;;;;;;;;;;5030833;28;19921;-73
2023/12/08 08:11:24;;;;;;;;;;;;;;;;;;5064242;28;19988;-72
2023/12/08 08:13:50;;;;;;;;;;;;;;;;;;5032937;28;20638;-72
2023/12/08 08:16:16;;;;;;;;;;;;;;;;;;5026007;28;19929;-72
2023/12/08 08:18:42;;;;;;;;;;;;;;;;;;5056458;28;19932;-72
2023/12/08 08:21:08;;;;;;;;;;;;;;;;;;5035081;28;19975;-72
2023/12/08 08:23:34;;;;;;;;;;;;;;;;;;5033890;28;19933;-72
2023/12/08 08:26:00;;;;;;;;;;;;;;;;;;5024567;28;19929;-72
2023/12/08 08:28:26;;;;;;;;;;;;;;;;;;5032967;28;19928;-72
2023/12/08 08:30:52;;;;;;;;;;;;;;;;;;5031986;28;19929;-72
2023/12/08 08:33:18;;;;;;;;;;;;;;;;;;5068594;28;19924;-72
2023/12/08 08:35:44;;;;;;;;;;;;;;;;;;5056275;28;19928;-73
2023/12/08 08:38:11;;;;;;;;;;;;;;;;;;5034368;28;19974;-73
2023/12/08 08:40:37;;;;;;;;;;;;;;;;;;5033019;28;19947;-73
2023/12/08 08:43:03;;;;;;;;;;;;;;;;;;5033050;28;19928;-73
2023/12/08 08:45:29;;;;;;;;;;;;;;;;;;5034137;28;19943;-72
2023/12/08 08:47:54;;;;;;;;;;;;;;;;;;5036724;28;20259;-72
2023/12/08 08:50:22;;;;;;;;;;;;;;;;;;5033610;28;19925;-73
2023/12/08 08:52:48;;;;;;;;;;;;;;;;;;5054809;28;20015;-73
2023/12/08 08:55:13;;;;;;;;;;;;;;;;;;5028480;28;20032;-73
2023/12/08 08:57:39;;;;;;;;;;;;;;;;;;5057177;28;20015;-72
2023/12/08 09:00:07;;;;;;;;;;;;;;;;;;5057885;28;19966;-72
2023/12/08 09:02:33;;;;;;;;;;;;;;;;;;5055465;28;19935;-73
2023/12/08 09:04:59;;;;;;;;;;;;;;;;;;5043596;28;19921;-73
2023/12/08 09:07:25;;;;;;;;;;;;;;;;;;5049907;28;19925;-73
2023/12/08 09:09:51;;;;;;;;;;;;;;;;;;5035527;28;19928;-73
2023/12/08 09:12:17;;;;;;;;;;;;;;;;;;5055815;28;20097;-73
2023/12/08 09:14:43;;;;;;;;;;;;;;;;;;5041267;28;19933;-73
2023/12/08 09:17:09;;;;;;;;;;;;;;;;;;5053363;28;20070;-73
2023/12/08 09:19:35;;;;;;;;;;;;;;;;;;5058330;28;19944;-73
2023/12/08 09:22:01;;;;;;;;;;;;;;;;;;5043899;28;19921;-73
2023/12/08 09:24:27;;;;;;;;;;;;;;;;;;5033377;28;19925;-72
2023/12/08 09:26:53;;;;;;;;;;;;;;;;;;5047618;28;20380;-73
2023/12/08 09:29:19;;;;;;;;;;;;;;;;;;5034180;28;19921;-73
2023/12/08 09:31:45;;;;;;;;;;;;;;;;;;5035847;28;20389;-74
2023/12/08 09:34:11;;;;;;;;;;;;;;;;;;5036322;28;19924;-73
2023/12/08 09:36:37;;;;;;;;;;;;;;;;;;5040672;28;19955;-74
2023/12/08 09:39:08;;;;;;;;;;;;;;;;;;5037615;28;19963;-73
2023/12/08 09:41:34;;;;;;;;;;;;;;;;;;5064585;28;19929;-73
2023/12/08 09:43:59;;;;;;;;;;;;;;;;;;5034498;28;19978;-73
2023/12/08 09:46:25;;;;;;;;;;;;;;;;;;5036581;28;20066;-73
2023/12/08 09:48:54;;;;;;;;;;;;;;;;;;5033950;28;20386;-73
2023/12/08 09:51:20;;;;;;;;;;;;;;;;;;5046853;28;19929;-73
2023/12/08 09:53:46;;;;;;;;;;;;;;;;;;5011557;28;20138;-74
2023/12/08 09:56:12;;;;;;;;;;;;;;;;;;5030231;28;20368;-74
2023/12/08 09:58:38;;;;;;;;;;;;;;;;;;5025034;28;20373;-73
2023/12/08 10:01:04;;;;;;;;;;;;;;;;;;5057685;28;19925;-73
2023/12/08 10:03:30;;;;;;;;;;;;;;;;;;5040346;28;20072;-73
2023/12/08 10:05:56;;;;;;;;;;;;;;;;;;5060942;28;20394;-73
2023/12/08 10:08:23;;;;;;;;;;;;;;;;;;5039488;28;20147;-73
2023/12/08 10:10:49;;;;;;;;;;;;;;;;;;5043456;28;19925;-73
2023/12/08 10:13:15;;;;;;;;;;;;;;;;;;5035452;28;19928;-74
2023/12/08 10:15:41;;;;;;;;;;;;;;;;;;5046680;28;19920;-73
2023/12/08 10:18:07;;;;;;;;;;;;;;;;;;5056718;28;19982;-73
2023/12/08 10:20:33;;;;;;;;;;;;;;;;;;5049396;28;19933;-73
2023/12/08 10:22:59;;;;;;;;;;;;;;;;;;5060327;28;19925;-73
2023/12/08 10:25:26;;;;;;;;;;;;;;;;;;5043407;28;20493;-73
2023/12/08 10:27:52;;;;;;;;;;;;;;;;;;5039714;28;19960;-73
2023/12/08 10:30:18;;;;;;;;;;;;;;;;;;5050937;28;20051;-73
2023/12/08 10:32:44;;;;;;;;;;;;;;;;;;5062506;28;19928;-74
2023/12/08 10:35:13;;;;;;;;;;;;;;;;;;5028981;28;20000;-73
2023/12/08 10:37:38;;;;;;;;;;;;;;;;;;5023096;28;20024;-73
2023/12/08 10:40:04;;;;;;;;;;;;;;;;;;5030796;28;20015;-73
2023/12/08 10:42:30;;;;;;;;;;;;;;;;;;5030111;28;19921;-73
2023/12/08 10:44:56;;;;;;;;;;;;;;;;;;5035339;28;20466;-73
2023/12/08 10:47:23;;;;;;;;;;;;;;;;;;5030225;28;19978;-73
2023/12/08 10:49:49;;;;;;;;;;;;;;;;;;5063327;28;19921;-72
2023/12/08 10:52:15;;;;;;;;;;;;;;;;;;5034288;28;19921;-73
2023/12/08 10:54:40;;;;;;;;;;;;;;;;;;5063954;28;19978;-72
2023/12/08 10:57:06;;;;;;;;;;;;;;;;;;5046647;28;20302;-72
2023/12/08 10:59:32;;;;;;;;;;;;;;;;;;5029183;28;19925;-72
2023/12/08 11:01:58;;;;;;;;;;;;;;;;;;5059534;28;19927;-73
2023/12/08 11:04:24;;;;;;;;;;;;;;;;;;5056085;28;29045;-72
2023/12/08 11:06:50;;;;;;;;;;;;;;;;;;5018620;28;19925;-73
2023/12/08 11:09:16;;;;;;;;;;;;;;;;;;5035435;28;19928;-72
2023/12/08 11:11:42;;;;;;;;;;;;;;;;;;5063043;28;19936;-73
2023/12/08 11:14:08;;;;;;;;;;;;;;;;;;5061401;28;19928;-73
2023/12/08 11:16:34;;;;;;;;;;;;;;;;;;5025490;28;19921;-72
2023/12/08 11:19:00;;;;;;;;;;;;;;;;;;5032064;28;19921;-72
2023/12/08 11:21:26;;;;;;;;;;;;;;;;;;5048480;28;19921;-72
2023/12/08 11:23:52;;;;;;;;;;;;;;;;;;5015121;28;19933;-73
2023/12/08 11:26:18;;;;;;;;;;;;;;;;;;5047977;28;19927;-72
2023/12/08 11:28:44;;;;;;;;;;;;;;;;;;5027669;28;20592;-72
2023/12/08 11:31:10;;;;;;;;;;;;;;;;;;5029012;28;19921;-72
2023/12/08 11:33:36;;;;;;;;;;;;;;;;;;5048481;28;19983;-72
2023/12/08 11:36:02;;;;;;;;;;;;;;;;;;5059829;28;19984;-72
2023/12/08 11:38:30;;;;;;;;;;;;;;;;;;5054996;28;19963;-73
2023/12/08 11:40:56;;;;;;;;;;;;;;;;;;5030693;28;19977;-73
2023/12/08 11:43:22;;;;;;;;;;;;;;;;;;5075797;28;19933;-73
2023/12/08 11:45:49;;;;;;;;;;;;;;;;;;5061331;28;20015;-73
2023/12/08 11:48:14;;;;;;;;;;;;;;;;;;5044815;28;19944;-73
2023/12/08 11:50:40;;;;;;;;;;;;;;;;;;5043813;28;20378;-73
2023/12/08 11:53:06;;;;;;;;;;;;;;;;;;5062196;28;19928;-72
2023/12/08 11:55:32;;;;;;;;;;;;;;;;;;5056248;28;19925;-73
2023/12/08 11:57:58;;;;;;;;;;;;;;;;;;5030433;28;19920;-73
2023/12/08 12:00:24;;;;;;;;;;;;;;;;;;5059703;28;19974;-73
2023/12/08 12:02:50;;;;;;;;;;;;;;;;;;5065499;28;19932;-73
2023/12/08 12:05:16;;;;;;;;;;;;;;;;;;5039559;28;19928;-73
2023/12/08 12:07:45;;;;;;;;;;;;;;;;;;5055833;28;19929;-73
2023/12/08 12:10:11;;;;;;;;;;;;;;;;;;5039293;28;20025;-73
2023/12/08 12:12:37;;;;;;;;;;;;;;;;;;5073116;28;20370;-72
2023/12/08 12:15:04;;;;;;;;;;;;;;;;;;5057830;28;19920;-73
2023/12/08 12:17:29;;;;;;;;;;;;;;;;;;5053977;28;19925;-72
2023/12/08 12:19:55;;;;;;;;;;;;;;;;;;5062576;28;19921;-72
2023/12/08 12:22:21;;;;;;;;;;;;;;;;;;5057800;28;19928;-72
2023/12/08 12:24:47;;;;;;;;;;;;;;;;;;5064901;28;20613;-73
2023/12/08 12:27:14;;;;;;;;;;;;;;;;;;5067605;28;19925;-73
2023/12/08 12:29:40;;;;;;;;;;;;;;;;;;5055497;28;20381;-73
2023/12/08 12:32:08;;;;;;;;;;;;;;;;;;5064672;28;19921;-73
2023/12/08 12:34:33;;;;;;;;;;;;;;;;;;5057760;28;19992;-72
2023/12/08 12:36:59;;;;;;;;;;;;;;;;;;5057196;28;19924;-73
2023/12/08 12:39:25;;;;;;;;;;;;;;;;;;5056524;28;19975;-73
2023/12/08 12:41:51;;;;;;;;;;;;;;;;;;5062275;28;19924;-72
2023/12/08 12:44:17;;;;;;;;;;;;;;;;;;5024088;28;20362;-73
2023/12/08 12:46:43;;;;;;;;;;;;;;;;;;5058962;28;19924;-73
2023/12/08 12:49:09;;;;;;;;;;;;;;;;;;5079457;28;19932;-73
2023/12/08 12:51:35;;;;;;;;;;;;;;;;;;5062088;28;19943;-72
2023/12/08 12:54:03;;;;;;;;;;;;;;;;;;5063016;28;20070;-72
2023/12/08 12:56:29;;;;;;;;;;;;;;;;;;5076301;28;20293;-72
2023/12/08 12:58:55;;;;;;;;;;;;;;;;;;5060695;28;19925;-72
2023/12/08 13:01:21;;;;;;;;;;;;;;;;;;5059827;28;19921;-73
2023/12/08 13:03:47;;;;;;;;;;;;;;;;;;5055733;28;19928;-73
2023/12/08 13:06:13;;;;;;;;;;;;;;;;;;5036294;28;19932;-73
2023/12/08 13:08:39;;;;;;;;;;;;;;;;;;5059749;28;19924;-73
2023/12/08 13:11:05;;;;;;;;;;;;;;;;;;5094886;22;19931;-70
2023/12/08 13:13:32;;;;;;;;;;;;;;;;;;5102201;28;19922;-71
2023/12/08 13:15:58;;;;;;;;;;;;;;;;;;5088354;28;20401;-71
2023/12/08 13:18:24;;;;;;;;;;;;;;;;;;5069943;28;19989;-72
2023/12/08 13:20:50;;;;;;;;;;;;;;;;;;5082805;28;19971;-71
2023/12/08 13:23:17;;;;;;;;;;;;;;;;;;5103485;28;19936;-72
2023/12/08 13:25:43;;;;;;;;;;;;;;;;;;5061415;28;19967;-71
2023/12/08 13:28:08;;;;;;;;;;;;;;;;;;5065201;28;19967;-71
2023/12/08 13:30:35;;;;;;;;;;;;;;;;;;5069029;28;19999;-71
2023/12/08 13:33:01;;;;;;;;;;;;;;;;;;5069660;28;20405;-72
2023/12/08 13:35:27;;;;;;;;;;;;;;;;;;5089379;28;20006;-72
2023/12/08 13:37:53;;;;;;;;;;;;;;;;;;5075427;28;20421;-72
2023/12/08 13:40:25;;;;;;;;;;;;;;;;;;5068869;28;19920;-71
2023/12/08 13:42:52;;;;;;;;;;;;;;;;;;5077797;28;20015;-72
2023/12/08 13:45:18;;;;;;;;;;;;;;;;;;5067382;28;19924;-71
2023/12/08 13:47:44;;;;;;;;;;;;;;;;;;5106307;27;20037;-71
2023/12/08 13:50:10;;;;;;;;;;;;;;;;;;5060884;28;20002;-71
2023/12/08 13:52:36;;;;;;;;;;;;;;;;;;5104558;28;20007;-71
2023/12/08 13:55:02;;;;;;;;;;;;;;;;;;5095997;27;20006;-71
2023/12/08 13:57:28;;;;;;;;;;;;;;;;;;5048501;28;19926;-71
2023/12/08 13:59:54;;;;;;;;;;;;;;;;;;5096037;28;19923;-72
2023/12/08 14:02:21;;;;;;;;;;;;;;;;;;5105644;27;19930;-71
2023/12/08 14:04:47;;;;;;;;;;;;;;;;;;5104182;28;20392;-71
2023/12/08 14:07:13;;;;;;;;;;;;;;;;;;5090815;28;20023;-71
2023/12/08 14:09:39;;;;;;;;;;;;;;;;;;5108988;28;19955;-71
2023/12/08 14:12:05;;;;;;;;;;;;;;;;;;5061306;28;20007;-71
2023/12/08 14:14:31;;;;;;;;;;;;;;;;;;5086873;28;20348;-71
2023/12/08 14:16:57;;;;;;;;;;;;;;;;;;5066927;28;19931;-70
2023/12/08 14:19:22;;;;;;;;;;;;;;;;;;5078268;28;19923;-71
2023/12/08 14:21:49;;;;;;;;;;;;;;;;;;5060975;28;19924;-71
2023/12/08 14:24:14;;;;;;;;;;;;;;;;;;5096342;28;19924;-70
2023/12/08 14:26:41;;;;;;;;;;;;;;;;;;5083497;28;19924;-71
2023/12/08 14:29:07;;;;;;;;;;;;;;;;;;5064505;28;20359;-70
2023/12/08 14:31:33;;;;;;;;;;;;;;;;;;5067015;28;19981;-71
2023/12/08 14:33:59;;;;;;;;;;;;;;;;;;5064249;28;19923;-70
2023/12/08 14:36:24;;;;;;;;;;;;;;;;;;5046605;28;20033;-69
2023/12/08 14:38:50;;;;;;;;;;;;;;;;;;5085296;28;19924;-69
2023/12/08 14:41:16;;;;;;;;;;;;;;;;;;5103552;28;19930;-69
2023/12/08 14:43:42;;;;;;;;;;;;;;;;;;5081967;28;19958;-66
2023/12/08 14:46:08;;;;;;;;;;;;;;;;;;5078835;28;20256;-66
2023/12/08 14:48:35;;;;;;;;;;;;;;;;;;5102530;28;20385;-67
2023/12/08 14:51:01;;;;;;;;;;;;;;;;;;5073575;28;19951;-66
2023/12/08 14:53:27;;;;;;;;;;;;;;;;;;5096205;28;19962;-65
2023/12/08 14:55:53;;;;;;;;;;;;;;;;;;5089768;28;19932;-66
2023/12/08 14:58:19;;;;;;;;;;;;;;;;;;5106005;28;20262;-67
2023/12/08 15:00:44;;;;;;;;;;;;;;;;;;5072990;28;19924;-66
2023/12/08 15:03:10;;;;;;;;;;;;;;;;;;5108448;28;19959;-66
2023/12/08 15:05:37;;;;;;;;;;;;;;;;;;5109508;28;19986;-67
2023/12/08 15:08:03;;;;;;;;;;;;;;;;;;5096363;28;20007;-66
2023/12/08 15:10:29;;;;;;;;;;;;;;;;;;5118094;27;20010;-67
2023/12/08 15:12:55;;;;;;;;;;;;;;;;;;5103833;28;19920;-67
2023/12/08 15:15:21;;;;;;;;;;;;;;;;;;5090834;28;19924;-66
2023/12/08 15:17:47;;;;;;;;;;;;;;;;;;5103019;28;19924;-66
2023/12/08 15:20:14;;;;;;;;;;;;;;;;;;5092925;28;19989;-67
2023/12/08 15:22:40;;;;;;;;;;;;;;;;;;5078452;28;19924;-67
2023/12/08 15:25:07;;;;;;;;;;;;;;;;;;5084584;28;19920;-67
2023/12/08 15:27:33;;;;;;;;;;;;;;;;;;5097859;28;20042;-67
2023/12/08 15:29:59;;;;;;;;;;;;;;;;;;5066995;28;19969;-66
2023/12/08 15:32:25;;;;;;;;;;;;;;;;;;5090242;28;19924;-65
2023/12/08 15:34:51;;;;;;;;;;;;;;;;;;5096507;28;19927;-66
2023/12/08 15:37:17;;;;;;;;;;;;;;;;;;5095919;28;19923;-66
2023/12/08 15:39:43;;;;;;;;;;;;;;;;;;5109676;27;19924;-66
2023/12/08 15:42:09;;;;;;;;;;;;;;;;;;5105444;28;19928;-66
2023/12/08 15:44:35;;;;;;;;;;;;;;;;;;5079914;28;19932;-66
2023/12/08 15:47:02;;;;;;;;;;;;;;;;;;5087175;28;20548;-69
2023/12/08 15:49:28;;;;;;;;;;;;;;;;;;5082923;28;19920;-67
2023/12/08 15:51:55;;;;;;;;;;;;;;;;;;5096461;28;19931;-67
2023/12/08 15:54:21;;;;;;;;;;;;;;;;;;5091688;28;19924;-67
2023/12/08 15:56:47;;;;;;;;;;;;;;;;;;5075348;28;19924;-67
2023/12/08 15:59:13;;;;;;;;;;;;;;;;;;5091426;28;19991;-68
2023/12/08 16:01:39;;;;;;;;;;;;;;;;;;5092062;28;20348;-68
2023/12/08 16:04:05;;;;;;;;;;;;;;;;;;5104425;27;19955;-68
2023/12/08 16:06:31;;;;;;;;;;;;;;;;;;5090214;28;19982;-68
2023/12/08 16:08:57;;;;;;;;;;;;;;;;;;5092002;28;19932;-68
2023/12/08 16:11:23;;;;;;;;;;;;;;;;;;5099961;27;20034;-69
2023/12/08 16:13:49;;;;;;;;;;;;;;;;;;5100400;28;19924;-66
2023/12/08 16:16:15;;;;;;;;;;;;;;;;;;5091859;28;19927;-68
2023/12/08 16:18:41;;;;;;;;;;;;;;;;;;5081733;28;20280;-67
2023/12/08 16:21:07;;;;;;;;;;;;;;;;;;5092197;28;20638;-69
2023/12/08 16:23:33;;;;;;;;;;;;;;;;;;5088293;28;19932;-68
2023/12/08 16:25:59;;;;;;;;;;;;;;;;;;5063305;28;19921;-68
2023/12/08 16:28:25;;;;;;;;;;;;;;;;;;5053636;28;19947;-69
2023/12/08 16:30:51;;;;;;;;;;;;;;;;;;5086942;28;20380;-68
2023/12/08 16:33:17;;;;;;;;;;;;;;;;;;5087914;28;19927;-68
2023/12/08 16:35:43;;;;;;;;;;;;;;;;;;5065134;28;19920;-68
2023/12/08 16:38:09;;;;;;;;;;;;;;;;;;5077129;28;20934;-68